Time;durP1;ratioP1;P1;durP2;ratioP2;P2;SDS_P1;SDS_P2;PMS_P1;PMS_P2;Temp;Humidity;BMP_temperature;BMP_pressure;BME280_temperature;BME280_humidity;BME280_pressure;Samples;Min_cycle;Max_cycle;Signal;HPM_P1;HPM_P2
2022/06/22 00:01:40;;;;;;;3.05;1.50;;;;;;;;;;4991280;28;20028;-71
2022/06/22 00:04:06;;;;;;;2.60;1.75;;;;;;;;;;5009993;28;20489;-71
2022/06/22 00:06:39;;;;;;;2.38;1.50;;;;;;;;;;4974147;28;20509;-71
2022/06/22 00:09:05;;;;;;;1.98;1.30;;;;;;;;;;4991239;28;20463;-71
2022/06/22 00:11:30;;;;;;;1.98;1.13;;;;;;;;;;4990895;28;20517;-71
2022/06/22 00:13:59;;;;;;;2.85;1.45;;;;;;;;;;4991184;28;20386;-71
2022/06/22 00:16:28;;;;;;;2.88;1.38;;;;;;;;;;5009776;28;20133;-71
2022/06/22 00:18:56;;;;;;;1.92;1.60;;;;;;;;;;4991252;28;20024;-71
2022/06/22 00:21:24;;;;;;;2.72;1.30;;;;;;;;;;4990811;28;20419;-71
2022/06/22 00:23:53;;;;;;;5.30;1.55;;;;;;;;;;5009198;28;20043;-70
2022/06/22 00:26:18;;;;;;;2.22;1.48;;;;;;;;;;4990581;28;20076;-71
2022/06/22 00:29:05;;;;;;;3.00;1.80;;;;;;;;;;5007298;28;20131;-71
2022/06/22 00:31:43;;;;;;;2.05;1.40;;;;;;;;;;5008862;28;20104;-72
2022/06/22 00:34:08;;;;;;;2.72;1.60;;;;;;;;;;4999649;28;20431;-72
2022/06/22 00:36:59;;;;;;;3.00;1.70;;;;;;;;;;5009099;28;20292;-71
2022/06/22 00:39:32;;;;;;;6.18;2.88;;;;;;;;;;5008830;28;20451;-71
2022/06/22 00:42:18;;;;;;;3.17;1.50;;;;;;;;;;4990712;28;20447;-71
2022/06/22 00:44:52;;;;;;;1.95;1.40;;;;;;;;;;5009283;28;20051;-71
2022/06/22 00:47:28;;;;;;;2.15;1.60;;;;;;;;;;4990253;28;20518;-71
2022/06/22 00:50:00;;;;;;;2.60;1.60;;;;;;;;;;4990892;28;20600;-70
2022/06/22 00:52:40;;;;;;;3.72;1.25;;;;;;;;;;4990488;28;20352;-71
2022/06/22 00:55:24;;;;;;;8.95;1.50;;;;;;;;;;4990673;28;20343;-71
2022/06/22 00:57:55;;;;;;;4.30;1.55;;;;;;;;;;5009211;28;20455;-71
2022/06/22 01:00:22;;;;;;;2.85;1.50;;;;;;;;;;4989527;28;20382;-71
2022/06/22 01:02:47;;;;;;;2.85;1.60;;;;;;;;;;4968238;28;20360;-71
2022/06/22 01:05:29;;;;;;;2.47;1.60;;;;;;;;;;4992773;28;20406;-71
2022/06/22 01:08:19;;;;;;;4.82;1.73;;;;;;;;;;4975398;28;20162;-71
2022/06/22 01:10:58;;;;;;;2.20;1.52;;;;;;;;;;4974707;28;20317;-71
2022/06/22 01:13:38;;;;;;;2.47;1.45;;;;;;;;;;4992546;28;20363;-71
2022/06/22 01:16:18;;;;;;;2.45;1.70;;;;;;;;;;4976180;28;20334;-73
2022/06/22 01:18:48;;;;;;;3.67;1.60;;;;;;;;;;4992715;28;20416;-72
2022/06/22 01:21:22;;;;;;;3.22;1.52;;;;;;;;;;4993041;28;20397;-71
2022/06/22 01:23:48;;;;;;;2.50;1.60;;;;;;;;;;4975149;28;20515;-71
2022/06/22 01:26:29;;;;;;;3.15;1.88;;;;;;;;;;4990151;28;20476;-71
2022/06/22 01:28:59;;;;;;;2.47;1.65;;;;;;;;;;4974414;28;20490;-72
2022/06/22 01:31:25;;;;;;;2.97;1.70;;;;;;;;;;4973974;28;20410;-72
2022/06/22 01:33:51;;;;;;;3.08;1.80;;;;;;;;;;4974150;28;20399;-71
2022/06/22 01:36:24;;;;;;;2.40;1.50;;;;;;;;;;4992249;28;20333;-71
2022/06/22 01:38:51;;;;;;;4.00;1.85;;;;;;;;;;4974134;28;20483;-71
2022/06/22 01:41:35;;;;;;;4.13;2.10;;;;;;;;;;4974394;28;20446;-71
2022/06/22 01:44:10;;;;;;;4.78;1.88;;;;;;;;;;4974202;28;20378;-71
2022/06/22 01:47:08;;;;;;;2.70;1.55;;;;;;;;;;4993653;28;20368;-71
2022/06/22 01:49:54;;;;;;;4.55;1.55;;;;;;;;;;4991936;28;20431;-71
2022/06/22 01:52:35;;;;;;;4.18;1.63;;;;;;;;;;4957340;28;20558;-71
2022/06/22 01:55:08;;;;;;;3.53;1.50;;;;;;;;;;4991720;28;20025;-72
2022/06/22 01:57:40;;;;;;;2.70;1.70;;;;;;;;;;4973993;28;20440;-71
2022/06/22 02:00:10;;;;;;;1.83;1.10;;;;;;;;;;4958408;28;20025;-71
2022/06/22 02:02:41;;;;;;;2.92;1.58;;;;;;;;;;4973930;28;20417;-71
2022/06/22 02:05:21;;;;;;;2.63;1.55;;;;;;;;;;4973690;28;20436;-71
2022/06/22 02:07:54;;;;;;;3.63;1.75;;;;;;;;;;4973580;28;20161;-71
2022/06/22 02:10:29;;;;;;;2.80;1.48;;;;;;;;;;4972622;28;20409;-71
2022/06/22 02:13:22;;;;;;;2.65;1.52;;;;;;;;;;4991329;28;20410;-71
2022/06/22 02:16:00;;;;;;;2.65;1.52;;;;;;;;;;4991559;28;20356;-71
2022/06/22 02:18:51;;;;;;;3.83;1.73;;;;;;;;;;4991570;28;20344;-71
2022/06/22 02:21:21;;;;;;;1.83;1.40;;;;;;;;;;4991169;28;20344;-71
2022/06/22 02:23:52;;;;;;;3.22;1.48;;;;;;;;;;4973354;28;20377;-72
2022/06/22 02:26:33;;;;;;;2.88;1.90;;;;;;;;;;4972956;28;20455;-71
2022/06/22 02:28:59;;;;;;;3.83;1.80;;;;;;;;;;4973405;28;20420;-71
2022/06/22 02:31:24;;;;;;;2.50;1.35;;;;;;;;;;4973100;28;20371;-71
2022/06/22 02:33:53;;;;;;;2.97;1.50;;;;;;;;;;4991123;28;20424;-71
2022/06/22 02:36:19;;;;;;;3.15;1.75;;;;;;;;;;4973853;28;20335;-71
2022/06/22 02:38:47;;;;;;;1.88;1.30;;;;;;;;;;4991084;28;20513;-71
2022/06/22 02:46:43;;;;;;;3.65;1.55;;;;;;;;;;4991187;28;20059;-71
2022/06/22 02:49:23;;;;;;;2.97;1.60;;;;;;;;;;4973724;28;20344;-72
2022/06/22 02:51:49;;;;;;;1.48;1.25;;;;;;;;;;4990654;28;20359;-71
2022/06/22 02:54:22;;;;;;;2.65;1.77;;;;;;;;;;4972680;28;20352;-71
2022/06/22 02:56:56;;;;;;;2.90;1.70;;;;;;;;;;4956662;28;20025;-71
2022/06/22 02:59:21;;;;;;;5.57;1.40;;;;;;;;;;4956110;28;20489;-71
2022/06/22 03:01:47;;;;;;;2.83;1.50;;;;;;;;;;4990447;28;20329;-71
2022/06/22 03:04:14;;;;;;;2.50;1.55;;;;;;;;;;4972772;28;20429;-71
2022/06/22 03:06:44;;;;;;;2.15;1.65;;;;;;;;;;4972036;28;20411;-72
2022/06/22 03:09:10;;;;;;;4.25;1.90;;;;;;;;;;4972732;28;20439;-71
2022/06/22 03:11:42;;;;;;;2.92;1.67;;;;;;;;;;4972773;28;20426;-71
2022/06/22 03:14:31;;;;;;;2.60;1.63;;;;;;;;;;4972572;28;20470;-71
2022/06/22 03:17:00;;;;;;;3.05;1.27;;;;;;;;;;4972046;28;20418;-71
2022/06/22 03:19:50;;;;;;;1.38;1.05;;;;;;;;;;4990975;28;20440;-71
2022/06/22 03:22:45;;;;;;;3.58;1.65;;;;;;;;;;4980029;28;20356;-71
2022/06/22 03:25:21;;;;;;;2.25;1.30;;;;;;;;;;4943809;28;20444;-71
2022/06/22 03:27:50;;;;;;;2.72;1.60;;;;;;;;;;4972586;28;20325;-71
2022/06/22 03:30:22;;;;;;;2.63;1.38;;;;;;;;;;4974420;28;20028;-71
2022/06/22 03:32:56;;;;;;;1.85;1.40;;;;;;;;;;4972054;28;20327;-71
2022/06/22 03:35:23;;;;;;;3.28;1.80;;;;;;;;;;4972081;28;20389;-71
2022/06/22 03:37:59;;;;;;;2.03;1.60;;;;;;;;;;4972200;28;20379;-71
2022/06/22 03:40:29;;;;;;;3.10;1.55;;;;;;;;;;4955628;28;20320;-71
2022/06/22 03:43:01;;;;;;;5.03;1.40;;;;;;;;;;4972194;28;20500;-70
2022/06/22 03:45:33;;;;;;;2.33;1.70;;;;;;;;;;4971768;28;20458;-71
2022/06/22 03:48:05;;;;;;;2.58;1.88;;;;;;;;;;4972752;28;20374;-71
2022/06/22 03:50:46;;;;;;;3.15;1.80;;;;;;;;;;4972516;28;20490;-71
2022/06/22 03:53:24;;;;;;;2.28;1.58;;;;;;;;;;4955539;28;20542;-71
2022/06/22 03:55:51;;;;;;;;;;;;;;;;;;4972455;28;20413;-71
2022/06/22 03:58:16;;;;;;;4.18;1.88;;;;;;;;;;4989534;28;20334;-70
2022/06/22 04:00:43;;;;;;;2.22;1.50;;;;;;;;;;4971893;28;20373;-71
2022/06/22 04:03:10;;;;;;;3.80;1.60;;;;;;;;;;4989623;28;20431;-72
2022/06/22 04:05:41;;;;;;;1.95;1.38;;;;;;;;;;4972205;28;20370;-71
2022/06/22 04:08:13;;;;;;;3.28;1.92;;;;;;;;;;4989315;28;20098;-71
2022/06/22 04:10:50;;;;;;;5.57;2.05;;;;;;;;;;4971522;28;20047;-70
2022/06/22 04:13:22;;;;;;;2.10;1.50;;;;;;;;;;4955852;28;20407;-71
2022/06/22 04:16:01;;;;;;;3.28;1.42;;;;;;;;;;4971704;28;20418;-71
2022/06/22 04:18:33;;;;;;;5.63;1.85;;;;;;;;;;4971225;28;20453;-71
2022/06/22 04:21:02;;;;;;;4.50;1.88;;;;;;;;;;4971358;28;20378;-71
2022/06/22 04:23:31;;;;;;;5.40;2.00;;;;;;;;;;4989166;28;20449;-71
2022/06/22 04:26:17;;;;;;;5.90;2.28;;;;;;;;;;4951413;28;20681;-71
2022/06/22 04:28:45;;;;;;;4.03;2.00;;;;;;;;;;4951811;28;20051;-71
2022/06/22 04:31:16;;;;;;;5.35;2.05;;;;;;;;;;4951824;28;20321;-72
2022/06/22 04:33:47;;;;;;;3.47;2.22;;;;;;;;;;4970033;28;20486;-70
2022/06/22 04:36:12;;;;;;;6.00;2.25;;;;;;;;;;4951403;28;20093;-71
2022/06/22 04:38:43;;;;;;;2.45;1.55;;;;;;;;;;4969142;28;20045;-71
2022/06/22 04:41:30;;;;;;;2.80;1.83;;;;;;;;;;4951691;28;20475;-71
2022/06/22 04:43:58;;;;;;;2.45;1.75;;;;;;;;;;4969425;28;20695;-71
2022/06/22 04:46:27;;;;;;;4.40;2.00;;;;;;;;;;4969345;28;20375;-72
2022/06/22 04:48:55;;;;;;;3.45;2.00;;;;;;;;;;4951224;28;20460;-71
2022/06/22 04:51:24;;;;;;;3.53;2.00;;;;;;;;;;4969101;28;20440;-72
2022/06/22 04:53:56;;;;;;;3.42;1.65;;;;;;;;;;4969467;28;20049;-71
2022/06/22 04:56:31;;;;;;;5.03;2.00;;;;;;;;;;4951178;28;20440;-71
2022/06/22 04:58:58;;;;;;;3.53;2.38;;;;;;;;;;4961621;28;20447;-71
2022/06/22 05:01:26;;;;;;;2.28;1.67;;;;;;;;;;4951386;28;20034;-71
2022/06/22 05:03:57;;;;;;;3.38;1.95;;;;;;;;;;4951537;28;20322;-71
2022/06/22 05:06:27;;;;;;;3.95;1.95;;;;;;;;;;4969493;28;20459;-70
2022/06/22 05:09:03;;;;;;;4.15;2.17;;;;;;;;;;4969406;28;20460;-71
2022/06/22 05:11:44;;;;;;;3.03;1.80;;;;;;;;;;4951653;28;20424;-71
2022/06/22 05:14:31;;;;;;;3.83;1.70;;;;;;;;;;4968414;28;20451;-71
2022/06/22 05:17:21;;;;;;;6.43;2.45;;;;;;;;;;4951164;28;20459;-70
2022/06/22 05:20:04;;;;;;;5.40;2.13;;;;;;;;;;4951082;28;20463;-72
2022/06/22 05:22:29;;;;;;;4.00;2.10;;;;;;;;;;4951218;28;20084;-71
2022/06/22 05:24:59;;;;;;;4.13;2.22;;;;;;;;;;4955412;28;20555;-71
2022/06/22 05:27:29;;;;;;;4.72;2.13;;;;;;;;;;4970577;28;20366;-71
2022/06/22 05:29:59;;;;;;;5.47;2.15;;;;;;;;;;4988874;28;20402;-71
2022/06/22 05:32:45;;;;;;;3.80;2.08;;;;;;;;;;4988576;28;20379;-71
2022/06/22 05:35:16;;;;;;;5.47;2.28;;;;;;;;;;4954946;28;20029;-70
2022/06/22 05:37:46;;;;;;;14.23;2.35;;;;;;;;;;4970612;28;20435;-71
2022/06/22 05:40:12;;;;;;;4.00;2.35;;;;;;;;;;4970660;28;20494;-72
2022/06/22 05:42:38;;;;;;;3.47;1.92;;;;;;;;;;4989225;28;20527;-73
2022/06/22 05:45:12;;;;;;;5.35;1.80;;;;;;;;;;4970831;28;20547;-70
2022/06/22 05:47:37;;;;;;;3.45;1.88;;;;;;;;;;4974643;28;20454;-71
2022/06/22 05:50:21;;;;;;;3.05;2.20;;;;;;;;;;4992199;28;20356;-71
2022/06/22 05:53:19;;;;;;;5.13;2.45;;;;;;;;;;4992158;28;20328;-71
2022/06/22 05:56:04;;;;;;;3.65;1.75;;;;;;;;;;4968406;28;20459;-70
2022/06/22 05:58:49;;;;;;;5.55;2.33;;;;;;;;;;4991569;28;20343;-71
2022/06/22 06:01:20;;;;;;;5.20;2.28;;;;;;;;;;4991868;28;20439;-71
2022/06/22 06:03:58;;;;;;;4.03;2.15;;;;;;;;;;4973728;28;20444;-71
2022/06/22 06:06:29;;;;;;;3.53;1.70;;;;;;;;;;4974899;28;20052;-71
2022/06/22 06:09:00;;;;;;;2.95;1.90;;;;;;;;;;4974127;28;20425;-70
2022/06/22 06:11:39;;;;;;;5.28;1.90;;;;;;;;;;4973722;28;20317;-71
2022/06/22 06:14:06;;;;;;;;;;;;;;;;;;4974217;28;20029;-70
2022/06/22 06:16:45;;;;;;;4.15;1.88;;;;;;;;;;4973927;28;20319;-72
2022/06/22 06:19:14;;;;;;;3.30;1.88;;;;;;;;;;4991407;28;20440;-71
2022/06/22 06:21:39;;;;;;;3.50;2.15;;;;;;;;;;4973354;28;20351;-71
2022/06/22 06:24:22;;;;;;;2.85;1.75;;;;;;;;;;4973350;28;20092;-71
2022/06/22 06:30:15;;;;;;;2.63;1.55;;;;;;;;;;4976809;28;20471;-70
2022/06/22 06:33:02;;;;;;;3.58;1.75;;;;;;;;;;4973287;28;20349;-70
2022/06/22 06:35:42;;;;;;;2.90;1.58;;;;;;;;;;4973224;28;20444;-72
2022/06/22 06:38:27;;;;;;;3.72;1.50;;;;;;;;;;4973238;28;20467;-70
2022/06/22 06:41:11;;;;;;;4.68;1.60;;;;;;;;;;4973802;28;20041;-70
2022/06/22 06:43:48;;;;;;;5.65;2.28;;;;;;;;;;4990969;28;20036;-70
2022/06/22 06:46:27;;;;;;;3.40;1.58;;;;;;;;;;4991380;28;20491;-70
2022/06/22 06:49:07;;;;;;;1.88;1.40;;;;;;;;;;4992545;28;20400;-70
2022/06/22 06:51:33;;;;;;;2.20;1.50;;;;;;;;;;4973162;28;20029;-70
2022/06/22 06:54:06;;;;;;;2.30;1.60;;;;;;;;;;4990664;28;20443;-70
2022/06/22 06:56:40;;;;;;;2.75;1.58;;;;;;;;;;4972601;28;20320;-71
2022/06/22 06:59:12;;;;;;;2.35;1.50;;;;;;;;;;4990726;28;20321;-70
2022/06/22 07:01:39;;;;;;;2.08;1.27;;;;;;;;;;4972651;28;20142;-70
2022/06/22 07:04:15;;;;;;;3.63;1.52;;;;;;;;;;4973682;28;20462;-70
2022/06/22 07:06:41;;;;;;;2.33;1.27;;;;;;;;;;4991879;28;20416;-70
2022/06/22 07:09:14;;;;;;;1.90;1.38;;;;;;;;;;4990397;28;20462;-70
2022/06/22 07:11:50;;;;;;;4.03;1.67;;;;;;;;;;4972666;28;20399;-70
2022/06/22 07:14:20;;;;;;;4.03;1.52;;;;;;;;;;4990438;28;20375;-70
2022/06/22 07:16:48;;;;;;;3.45;1.67;;;;;;;;;;4972194;28;20025;-70
2022/06/22 07:19:18;;;;;;;2.20;1.10;;;;;;;;;;4972587;28;20467;-70
2022/06/22 07:22:21;;;;;;;3.97;1.48;;;;;;;;;;4972128;28;20343;-70
2022/06/22 07:24:47;;;;;;;2.88;1.48;;;;;;;;;;4949544;28;20430;-70
2022/06/22 07:27:33;;;;;;;2.45;1.13;;;;;;;;;;4989779;28;20060;-70
2022/06/22 07:30:14;;;;;;;1.83;1.20;;;;;;;;;;4973543;28;20498;-71
2022/06/22 07:33:02;;;;;;;1.70;1.30;;;;;;;;;;4990637;28;20547;-70
2022/06/22 07:35:49;;;;;;;2.43;1.47;;;;;;;;;;4971845;28;20032;-70
2022/06/22 07:38:25;;;;;;;2.78;1.40;;;;;;;;;;4987925;28;20321;-70
2022/06/22 07:43:35;;;;;;;1.60;1.10;;;;;;;;;;4975649;28;20059;-70
2022/06/22 07:46:00;;;;;;;2.72;1.10;;;;;;;;;;4971782;28;20028;-70
2022/06/22 07:48:27;;;;;;;4.63;1.30;;;;;;;;;;4972166;28;20491;-69
2022/06/22 07:50:57;;;;;;;1.92;0.80;;;;;;;;;;4971526;28;20372;-69
2022/06/22 07:53:30;;;;;;;1.40;1.00;;;;;;;;;;4971983;28;20459;-70
2022/06/22 07:56:30;;;;;;;0.95;0.80;;;;;;;;;;4971711;28;20416;-70
2022/06/22 07:58:58;;;;;;;2.03;0.93;;;;;;;;;;4989541;28;20442;-70
2022/06/22 08:01:55;;;;;;;1.50;0.90;;;;;;;;;;4990955;28;20021;-69
2022/06/22 08:04:26;;;;;;;1.83;0.90;;;;;;;;;;4956026;28;20348;-70
2022/06/22 08:07:08;;;;;;;4.30;1.00;;;;;;;;;;4989232;28;20337;-70
2022/06/22 08:09:41;;;;;;;3.30;0.85;;;;;;;;;;4971485;28;20409;-69
2022/06/22 08:12:13;;;;;;;0.85;0.60;;;;;;;;;;4989343;28;20343;-70
2022/06/22 08:14:44;;;;;;;1.50;0.85;;;;;;;;;;4989323;28;20375;-70
2022/06/22 08:17:23;;;;;;;1.23;0.70;;;;;;;;;;4989431;28;20379;-71
2022/06/22 08:19:49;;;;;;;0.90;0.63;;;;;;;;;;4989493;28;20037;-70
2022/06/22 08:22:14;;;;;;;0.77;0.70;;;;;;;;;;4971383;28;20451;-70
2022/06/22 08:24:46;;;;;;;3.85;1.15;;;;;;;;;;4988673;28;20433;-69
2022/06/22 08:27:17;;;;;;;1.80;0.90;;;;;;;;;;4971640;28;20369;-70
2022/06/22 08:29:48;;;;;;;1.52;0.82;;;;;;;;;;4971452;28;20472;-70
2022/06/22 08:32:34;;;;;;;1.52;0.90;;;;;;;;;;4971370;28;20442;-69
2022/06/22 08:35:09;;;;;;;3.05;1.00;;;;;;;;;;4971440;28;20029;-70
2022/06/22 08:37:44;;;;;;;1.83;0.80;;;;;;;;;;4971201;28;20344;-69
2022/06/22 08:40:27;;;;;;;1.85;0.80;;;;;;;;;;4971125;28;20033;-70
2022/06/22 08:43:01;;;;;;;1.23;0.75;;;;;;;;;;4988687;28;20347;-69
2022/06/22 08:45:45;;;;;;;1.98;0.95;;;;;;;;;;4988765;28;20556;-70
2022/06/22 08:48:29;;;;;;;1.75;0.75;;;;;;;;;;4989093;28;20029;-69
2022/06/22 08:51:08;;;;;;;1.25;0.70;;;;;;;;;;4989475;28;20432;-69
2022/06/22 08:53:52;;;;;;;;;;;;;;;;;;4971472;28;20493;-70
2022/06/22 08:56:31;;;;;;;1.00;0.80;;;;;;;;;;4988927;28;19921;-69
2022/06/22 08:59:13;;;;;;;1.83;0.82;;;;;;;;;;4971112;28;20525;-70
2022/06/22 09:02:11;;;;;;;0.75;0.60;;;;;;;;;;4989306;28;20420;-69
2022/06/22 09:05:02;;;;;;;0.32;0.30;;;;;;;;;;4944330;28;20456;-69
2022/06/22 09:07:52;;;;;;;5.05;0.85;;;;;;;;;;4990524;28;20444;-70
2022/06/22 09:10:49;;;;;;;1.25;0.70;;;;;;;;;;4989258;28;20032;-69
2022/06/22 09:13:36;;;;;;;2.88;0.77;;;;;;;;;;4988693;28;20340;-69
2022/06/22 09:16:20;;;;;;;1.98;0.82;;;;;;;;;;4989245;28;20416;-69
2022/06/22 09:19:15;;;;;;;2.60;0.88;;;;;;;;;;4989024;28;20317;-70
2022/06/22 09:21:44;;;;;;;1.50;0.75;;;;;;;;;;4974508;28;20329;-70
2022/06/22 09:24:38;;;;;;;2.08;1.00;;;;;;;;;;4992202;28;20530;-69
2022/06/22 09:27:17;;;;;;;1.73;1.02;;;;;;;;;;4991714;28;20472;-69
2022/06/22 09:30:06;;;;;;;1.38;0.65;;;;;;;;;;4974476;28;20072;-70
2022/06/22 09:32:55;;;;;;;4.05;1.00;;;;;;;;;;4992216;28;20356;-69
2022/06/22 09:35:23;;;;;;;;;;;;;;;;;;4974922;28;20498;-69
2022/06/22 09:38:13;;;;;;;1.23;0.80;;;;;;;;;;4992883;28;19983;-69
2022/06/22 09:40:47;;;;;;;1.13;0.57;;;;;;;;;;4992023;28;20024;-70
2022/06/22 09:43:34;;;;;;;1.85;1.00;;;;;;;;;;4992546;28;20516;-70
2022/06/22 09:46:36;;;;;;;1.35;0.60;;;;;;;;;;4991903;28;20498;-70
2022/06/22 09:49:26;;;;;;;1.17;0.60;;;;;;;;;;4974672;28;20424;-69
2022/06/22 09:52:11;;;;;;;2.42;1.02;;;;;;;;;;4991629;28;20096;-69
2022/06/22 09:57:40;;;;;;;2.28;0.88;;;;;;;;;;4976622;28;20467;-70
2022/06/22 10:00:11;;;;;;;0.65;0.50;;;;;;;;;;4991733;28;20360;-69
2022/06/22 10:02:58;;;;;;;1.52;0.75;;;;;;;;;;4973888;28;20045;-70
2022/06/22 10:05:35;;;;;;;0.80;0.60;;;;;;;;;;4990371;28;20396;-70
2022/06/22 10:08:11;;;;;;;1.20;0.70;;;;;;;;;;4991891;28;20128;-70
2022/06/22 10:11:01;;;;;;;1.67;0.98;;;;;;;;;;4973502;28;20548;-70
2022/06/22 10:14:08;;;;;;;4.05;0.65;;;;;;;;;;4973809;28;20073;-70
2022/06/22 10:16:43;;;;;;;1.10;0.60;;;;;;;;;;4980437;28;20432;-70
2022/06/22 10:19:36;;;;;;;1.05;0.50;;;;;;;;;;4974818;28;20444;-69
2022/06/22 10:22:37;;;;;;;1.13;0.60;;;;;;;;;;4960722;28;20045;-70
2022/06/22 10:25:27;;;;;;;2.92;0.50;;;;;;;;;;4990911;28;20460;-71
2022/06/22 10:28:08;;;;;;;3.33;0.80;;;;;;;;;;4991185;28;20368;-71
2022/06/22 10:30:48;;;;;;;0.95;0.50;;;;;;;;;;4991693;28;20413;-70
2022/06/22 10:33:45;;;;;;;3.50;0.80;;;;;;;;;;4973345;28;20439;-70
2022/06/22 10:36:11;;;;;;;3.28;0.98;;;;;;;;;;4973375;28;20436;-70
2022/06/22 10:38:51;;;;;;;1.48;0.70;;;;;;;;;;4992138;28;20404;-70
2022/06/22 10:47:57;;;;;;;2.92;1.00;;;;;;;;;;4975795;28;20431;-70
2022/06/22 10:50:37;;;;;;;2.15;0.68;;;;;;;;;;4969865;28;20486;-71
2022/06/22 10:53:11;;;;;;;1.52;0.75;;;;;;;;;;4973097;28;20381;-72
2022/06/22 10:56:01;;;;;;;1.80;0.70;;;;;;;;;;4991831;28;20329;-68
2022/06/22 10:58:37;;;;;;;2.22;0.70;;;;;;;;;;4973137;28;20032;-69
2022/06/22 11:01:28;;;;;;;1.02;0.82;;;;;;;;;;4990883;28;20321;-69
2022/06/22 11:04:05;;;;;;;1.80;0.88;;;;;;;;;;4953031;28;20452;-68
2022/06/22 11:06:43;;;;;;;1.60;0.70;;;;;;;;;;4992383;28;20490;-69
2022/06/22 11:09:31;;;;;;;3.90;1.05;;;;;;;;;;4992270;28;20359;-68
2022/06/22 11:12:27;;;;;;;3.75;0.93;;;;;;;;;;4990408;28;20529;-69
2022/06/22 11:15:26;;;;;;;2.72;1.02;;;;;;;;;;4955407;28;20366;-68
2022/06/22 11:18:13;;;;;;;1.45;1.10;;;;;;;;;;4973102;28;20463;-69
2022/06/22 11:20:47;;;;;;;2.25;1.00;;;;;;;;;;4972238;28;20316;-69
2022/06/22 11:23:21;;;;;;;2.25;1.17;;;;;;;;;;4991025;28;20356;-68
2022/06/22 11:32:48;;;;;;;1.35;0.90;;;;;;;;;;4990033;28;20387;-69
2022/06/22 11:35:38;;;;;;;1.50;0.80;;;;;;;;;;4989735;28;20505;-69
2022/06/22 11:38:12;;;;;;;1.42;0.73;;;;;;;;;;4991117;28;20337;-69
2022/06/22 11:41:02;;;;;;;1.77;0.80;;;;;;;;;;4989889;28;20335;-70
2022/06/22 11:44:05;;;;;;;0.98;0.68;;;;;;;;;;4971485;28;20416;-68
2022/06/22 11:46:33;;;;;;;1.27;0.55;;;;;;;;;;4990796;28;20493;-69
2022/06/22 11:49:29;;;;;;;2.08;0.80;;;;;;;;;;4971693;28;20317;-69
2022/06/22 11:52:20;;;;;;;1.05;0.60;;;;;;;;;;4990515;28;20391;-69
2022/06/22 11:55:00;;;;;;;1.10;0.75;;;;;;;;;;4989528;28;20463;-70
2022/06/22 11:57:28;;;;;;;2.63;0.80;;;;;;;;;;4988241;28;20486;-69
2022/06/22 12:00:25;;;;;;;1.25;0.65;;;;;;;;;;4989620;28;20386;-69
2022/06/22 12:03:18;;;;;;;1.33;0.70;;;;;;;;;;4989747;28;20087;-68
2022/06/22 12:05:47;;;;;;;1.58;0.70;;;;;;;;;;4989525;28;20424;-69
2022/06/22 12:08:31;;;;;;;;;;;;;;;;;;4989823;28;20452;-69
2022/06/22 12:10:58;;;;;;;1.83;0.70;;;;;;;;;;4990453;28;19934;-69
2022/06/22 12:13:32;;;;;;;1.63;0.63;;;;;;;;;;4989418;28;20394;-68
2022/06/22 12:16:06;;;;;;;2.85;0.80;;;;;;;;;;4990090;28;20327;-68
2022/06/22 12:18:56;;;;;;;1.10;0.65;;;;;;;;;;4990148;28;20432;-69
2022/06/22 12:21:54;;;;;;;1.00;0.60;;;;;;;;;;4990591;28;20332;-68
2022/06/22 12:24:52;;;;;;;1.33;0.70;;;;;;;;;;4971542;28;20493;-68
2022/06/22 12:27:23;;;;;;;3.22;0.70;;;;;;;;;;4946309;28;20499;-69
2022/06/22 12:29:58;;;;;;;1.95;0.70;;;;;;;;;;4969879;28;20519;-68
2022/06/22 12:32:33;;;;;;;1.42;0.70;;;;;;;;;;4969529;28;20033;-69
2022/06/22 12:35:16;;;;;;;1.17;0.68;;;;;;;;;;4970085;28;20140;-68
2022/06/22 12:37:47;;;;;;;1.27;0.60;;;;;;;;;;4968548;28;20428;-68
2022/06/22 12:40:24;;;;;;;2.15;0.70;;;;;;;;;;4951805;28;20437;-68
2022/06/22 12:42:58;;;;;;;1.48;0.50;;;;;;;;;;4951262;28;20341;-68
2022/06/22 12:45:45;;;;;;;0.52;0.40;;;;;;;;;;4969748;28;20029;-68
2022/06/22 12:48:32;;;;;;;1.55;0.52;;;;;;;;;;4969972;28;20334;-68
2022/06/22 12:51:04;;;;;;;2.13;0.70;;;;;;;;;;4968978;28;20388;-68
2022/06/22 12:53:50;;;;;;;1.88;0.70;;;;;;;;;;4969241;28;20483;-68
2022/06/22 12:56:34;;;;;;;3.67;0.93;;;;;;;;;;4974803;28;20347;-68
2022/06/22 12:59:49;;;;;;;1.30;0.68;;;;;;;;;;4973455;28;20026;-68
2022/06/22 13:02:19;;;;;;;1.95;0.98;;;;;;;;;;4960115;28;20034;-68
2022/06/22 13:04:46;;;;;;;1.17;0.50;;;;;;;;;;4956056;28;20340;-69
2022/06/22 13:07:18;;;;;;;1.92;0.90;;;;;;;;;;4972686;28;20478;-69
2022/06/22 13:09:45;;;;;;;1.70;0.63;;;;;;;;;;4955439;28;20445;-70
2022/06/22 13:12:30;;;;;;;1.83;0.52;;;;;;;;;;4955178;28;20364;-68
2022/06/22 13:15:02;;;;;;;0.80;0.45;;;;;;;;;;4952246;28;20492;-68
2022/06/22 13:17:34;;;;;;;1.58;0.60;;;;;;;;;;4968354;28;20336;-68
2022/06/22 13:20:29;;;;;;;2.10;0.70;;;;;;;;;;4938631;28;20405;-68
2022/06/22 13:23:37;;;;;;;2.45;0.77;;;;;;;;;;4946907;28;20037;-68
2022/06/22 13:26:30;;;;;;;2.42;1.00;;;;;;;;;;4984838;28;20314;-69
2022/06/22 13:29:13;;;;;;;3.80;0.80;;;;;;;;;;4994070;28;20037;-68
2022/06/22 13:31:42;;;;;;;1.05;0.55;;;;;;;;;;4992646;28;20443;-67
2022/06/22 13:34:09;;;;;;;2.15;0.88;;;;;;;;;;4974436;28;20432;-68
2022/06/22 13:36:53;;;;;;;2.33;0.60;;;;;;;;;;4992127;28;20229;-68
2022/06/22 13:39:40;;;;;;;2.45;0.80;;;;;;;;;;4975219;28;20512;-68
2022/06/22 13:42:34;;;;;;;1.27;0.60;;;;;;;;;;4992219;28;20379;-68
2022/06/22 13:45:35;;;;;;;0.77;0.60;;;;;;;;;;4991382;28;20317;-67
2022/06/22 13:48:06;;;;;;;3.28;0.75;;;;;;;;;;4961559;28;20436;-68
2022/06/22 13:51:29;;;;;;;1.20;0.63;;;;;;;;;;4992798;28;20032;-68
2022/06/22 13:54:00;;;;;;;0.93;0.63;;;;;;;;;;4987002;28;20064;-68
2022/06/22 13:56:44;;;;;;;5.25;0.80;;;;;;;;;;4992183;28;20095;-68
2022/06/22 13:59:41;;;;;;;0.40;0.40;;;;;;;;;;4991964;28;20470;-67
2022/06/22 14:02:33;;;;;;;2.30;0.70;;;;;;;;;;4960541;28;20431;-68
2022/06/22 14:05:07;;;;;;;1.20;0.50;;;;;;;;;;4980168;28;20547;-67
2022/06/22 14:07:40;;;;;;;1.73;0.70;;;;;;;;;;4973162;28;20390;-68
2022/06/22 14:10:27;;;;;;;0.82;0.40;;;;;;;;;;4991446;28;20491;-68
2022/06/22 14:12:59;;;;;;;0.68;0.50;;;;;;;;;;4992309;28;20424;-67
2022/06/22 14:15:33;;;;;;;1.48;0.57;;;;;;;;;;4992394;28;20374;-68
2022/06/22 14:18:15;;;;;;;1.48;0.55;;;;;;;;;;4957959;28;20366;-67
2022/06/22 14:21:12;;;;;;;1.95;0.63;;;;;;;;;;4973722;28;20446;-67
2022/06/22 14:23:39;;;;;;;1.98;0.63;;;;;;;;;;4963288;28;20063;-68
2022/06/22 14:26:45;;;;;;;0.93;0.60;;;;;;;;;;4990709;28;20438;-68
2022/06/22 14:29:19;;;;;;;1.88;0.70;;;;;;;;;;4974135;28;20408;-67
2022/06/22 14:32:12;;;;;;;0.57;0.55;;;;;;;;;;4991538;28;20111;-67
2022/06/22 14:35:06;;;;;;;4.43;0.50;;;;;;;;;;4973142;28;20482;-67
2022/06/22 14:37:38;;;;;;;1.30;0.60;;;;;;;;;;5008423;28;20457;-67
2022/06/22 14:40:07;;;;;;;8.32;0.63;;;;;;;;;;4998669;28;20443;-67
2022/06/22 14:42:38;;;;;;;3.13;0.55;;;;;;;;;;5001177;28;20542;-67
2022/06/22 14:45:21;;;;;;;17.85;0.80;;;;;;;;;;5016392;28;20293;-67
2022/06/22 14:47:49;;;;;;;15.98;1.23;;;;;;;;;;5029874;28;20459;-68
2022/06/22 14:50:49;;;;;;;11.43;0.82;;;;;;;;;;5010217;28;20079;-67
2022/06/22 14:53:37;;;;;;;3.38;0.60;;;;;;;;;;4980070;28;20438;-66
2022/06/22 14:56:09;;;;;;;2.72;0.73;;;;;;;;;;5011829;28;20028;-67
2022/06/22 14:58:49;;;;;;;0.98;0.70;;;;;;;;;;5012558;28;20028;-67
2022/06/22 15:01:26;;;;;;;2.00;0.60;;;;;;;;;;5030368;28;20427;-67
2022/06/22 15:04:29;;;;;;;4.25;0.82;;;;;;;;;;5012592;28;20371;-67
2022/06/22 15:07:04;;;;;;;4.55;1.00;;;;;;;;;;5014158;28;20332;-67
2022/06/22 15:09:51;;;;;;;4.97;1.40;;;;;;;;;;5011794;28;20358;-67
2022/06/22 15:15:39;;;;;;;3.28;0.40;;;;;;;;;;5030916;28;20427;-67
2022/06/22 15:18:20;;;;;;;1.05;0.50;;;;;;;;;;5011585;28;20382;-67
2022/06/22 15:20:52;;;;;;;1.10;0.50;;;;;;;;;;5012135;28;20503;-67
2022/06/22 15:23:29;;;;;;;6.05;0.52;;;;;;;;;;5030108;28;20454;-67
2022/06/22 15:26:00;;;;;;;3.83;0.50;;;;;;;;;;5011687;28;20331;-67
2022/06/22 15:28:51;;;;;;;1.38;0.50;;;;;;;;;;5030580;28;20391;-67
2022/06/22 15:32:11;;;;;;;1.60;0.70;;;;;;;;;;5006910;28;20067;-67
2022/06/22 15:34:57;;;;;;;1.95;0.40;;;;;;;;;;4987458;28;20435;-67
2022/06/22 15:37:40;;;;;;;1.83;0.40;;;;;;;;;;5008620;28;20067;-67
2022/06/22 15:40:12;;;;;;;7.55;0.85;;;;;;;;;;5029965;28;20557;-67
2022/06/22 15:42:44;;;;;;;5.90;0.98;;;;;;;;;;5029532;28;20461;-67
2022/06/22 15:45:25;;;;;;;4.20;0.52;;;;;;;;;;5011413;28;20382;-67
2022/06/22 15:47:53;;;;;;;1.83;0.57;;;;;;;;;;5029400;28;20435;-69
2022/06/22 15:50:42;;;;;;;1.83;0.50;;;;;;;;;;5011367;28;20350;-68
2022/06/22 15:53:32;;;;;;;1.02;0.50;;;;;;;;;;5020843;28;20028;-67
2022/06/22 15:56:13;;;;;;;0.60;0.43;;;;;;;;;;5011084;28;20354;-67
2022/06/22 15:58:41;;;;;;;1.98;0.43;;;;;;;;;;5029426;28;20423;-67
2022/06/22 16:01:10;;;;;;;0.88;0.63;;;;;;;;;;5029433;28;20461;-68
2022/06/22 16:03:51;;;;;;;1.45;0.60;;;;;;;;;;5011574;28;20534;-67
2022/06/22 16:06:21;;;;;;;0.80;0.40;;;;;;;;;;5029306;28;20458;-67
2022/06/22 16:08:54;;;;;;;3.72;0.50;;;;;;;;;;5029154;28;20354;-68
2022/06/22 16:14:52;;;;;;;1.25;0.60;;;;;;;;;;5028888;28;20489;-67
2022/06/22 16:17:25;;;;;;;0.90;0.40;;;;;;;;;;5029167;28;20425;-68
2022/06/22 16:20:29;;;;;;;4.32;0.60;;;;;;;;;;5029082;28;20513;-68
2022/06/22 16:23:09;;;;;;;1.55;0.40;;;;;;;;;;5026204;28;20359;-67
2022/06/22 16:25:48;;;;;;;1.55;0.80;;;;;;;;;;5028760;28;20093;-67